sensor_id;sensor_type;location;lat;lon;timestamp;pressure;altitude;pressure_sealevel;temperature;humidity
71145;BME280;58812;47.698;17.726;2023-09-30T00:00:05;100639.78;;;13.88;100.00
71145;BME280;58812;47.698;17.726;2023-09-30T00:02:33;100636.78;;;13.73;100.00
71145;BME280;58812;47.698;17.726;2023-09-30T00:04:58;100638.97;;;13.70;100.00
71145;BME280;58812;47.698;17.726;2023-09-30T00:07:24;100650.63;;;13.52;100.00
71145;BME280;58812;47.698;17.726;2023-09-30T00:09:50;100647.31;;;13.58;100.00
71145;BME280;58812;47.698;17.726;2023-09-30T00:12:17;100641.44;;;13.63;100.00
71145;BME280;58812;47.698;17.726;2023-09-30T00:14:42;100639.84;;;13.52;100.00
71145;BME280;58812;47.698;17.726;2023-09-30T00:17:08;100634.59;;;13.51;100.00
71145;BME280;58812;47.698;17.726;2023-09-30T00:19:33;100633.37;;;13.45;100.00
71145;BME280;58812;47.698;17.726;2023-09-30T00:21:58;100629.19;;;13.69;100.00
71145;BME280;58812;47.698;17.726;2023-09-30T00:24:25;100627.84;;;13.65;100.00
71145;BME280;58812;47.698;17.726;2023-09-30T00:26:51;100629.72;;;13.46;100.00
71145;BME280;58812;47.698;17.726;2023-09-30T00:29:17;100636.87;;;13.63;100.00
71145;BME280;58812;47.698;17.726;2023-09-30T00:31:43;100634.41;;;13.44;100.00
71145;BME280;58812;47.698;17.726;2023-09-30T00:34:09;100625.53;;;13.52;100.00
71145;BME280;58812;47.698;17.726;2023-09-30T00:36:35;100628.84;;;13.46;100.00
71145;BME280;58812;47.698;17.726;2023-09-30T00:39:00;100620.41;;;13.58;100.00
71145;BME280;58812;47.698;17.726;2023-09-30T00:41:26;100626.31;;;13.44;100.00
71145;BME280;58812;47.698;17.726;2023-09-30T00:43:51;100626.19;;;13.28;100.00
71145;BME280;58812;47.698;17.726;2023-09-30T00:46:18;100628.97;;;13.36;100.00
71145;BME280;58812;47.698;17.726;2023-09-30T00:48:47;100619.22;;;13.35;100.00
71145;BME280;58812;47.698;17.726;2023-09-30T00:51:13;100618.38;;;13.34;100.00
71145;BME280;58812;47.698;17.726;2023-09-30T00:53:39;100618.22;;;13.36;100.00
71145;BME280;58812;47.698;17.726;2023-09-30T00:56:05;100620.81;;;13.28;100.00
71145;BME280;58812;47.698;17.726;2023-09-30T00:58:32;100613.81;;;13.17;100.00
71145;BME280;58812;47.698;17.726;2023-09-30T01:00:59;100616.50;;;12.99;100.00
71145;BME280;58812;47.698;17.726;2023-09-30T01:03:25;100614.13;;;13.32;100.00
71145;BME280;58812;47.698;17.726;2023-09-30T01:05:50;100615.75;;;13.25;100.00
71145;BME280;58812;47.698;17.726;2023-09-30T01:08:16;100607.28;;;13.38;100.00
71145;BME280;58812;47.698;17.726;2023-09-30T01:10:42;100598.53;;;13.35;100.00
71145;BME280;58812;47.698;17.726;2023-09-30T01:13:08;100599.63;;;13.25;100.00
71145;BME280;58812;47.698;17.726;2023-09-30T01:15:33;100599.53;;;13.17;100.00
71145;BME280;58812;47.698;17.726;2023-09-30T01:17:59;100595.84;;;13.00;100.00
71145;BME280;58812;47.698;17.726;2023-09-30T01:20:25;100590.59;;;13.16;100.00
71145;BME280;58812;47.698;17.726;2023-09-30T01:22:50;100585.94;;;13.00;100.00
71145;BME280;58812;47.698;17.726;2023-09-30T01:25:17;100592.00;;;13.02;100.00
71145;BME280;58812;47.698;17.726;2023-09-30T01:27:42;100584.25;;;12.99;100.00
71145;BME280;58812;47.698;17.726;2023-09-30T01:30:08;100578.78;;;13.09;100.00
71145;BME280;58812;47.698;17.726;2023-09-30T01:32:36;100585.38;;;13.15;100.00
71145;BME280;58812;47.698;17.726;2023-09-30T01:35:02;100582.63;;;13.06;100.00
71145;BME280;58812;47.698;17.726;2023-09-30T01:37:28;100581.19;;;12.94;100.00
71145;BME280;58812;47.698;17.726;2023-09-30T01:39:53;100582.50;;;12.90;100.00
71145;BME280;58812;47.698;17.726;2023-09-30T01:42:20;100586.94;;;12.99;100.00
71145;BME280;58812;47.698;17.726;2023-09-30T01:44:46;100585.25;;;12.98;100.00
71145;BME280;58812;47.698;17.726;2023-09-30T01:47:11;100577.44;;;12.87;100.00
71145;BME280;58812;47.698;17.726;2023-09-30T01:49:37;100581.62;;;13.07;100.00
71145;BME280;58812;47.698;17.726;2023-09-30T01:52:03;100587.62;;;13.01;100.00
71145;BME280;58812;47.698;17.726;2023-09-30T01:54:28;100589.16;;;13.22;100.00
71145;BME280;58812;47.698;17.726;2023-09-30T01:56:54;100583.31;;;13.08;100.00
71145;BME280;58812;47.698;17.726;2023-09-30T01:59:19;100589.75;;;13.16;100.00
71145;BME280;58812;47.698;17.726;2023-09-30T02:01:44;100584.94;;;13.19;100.00
71145;BME280;58812;47.698;17.726;2023-09-30T02:04:11;100577.28;;;13.24;100.00
71145;BME280;58812;47.698;17.726;2023-09-30T02:06:41;100584.38;;;13.16;100.00
71145;BME280;58812;47.698;17.726;2023-09-30T02:09:06;100589.16;;;13.22;100.00
71145;BME280;58812;47.698;17.726;2023-09-30T02:11:34;100584.09;;;13.19;100.00
71145;BME280;58812;47.698;17.726;2023-09-30T02:13:59;100580.00;;;13.15;100.00
71145;BME280;58812;47.698;17.726;2023-09-30T02:16:25;100580.72;;;13.17;100.00
71145;BME280;58812;47.698;17.726;2023-09-30T02:18:51;100587.84;;;13.08;100.00
71145;BME280;58812;47.698;17.726;2023-09-30T02:21:17;100583.09;;;13.02;100.00
71145;BME280;58812;47.698;17.726;2023-09-30T02:23:42;100593.41;;;13.06;100.00
71145;BME280;58812;47.698;17.726;2023-09-30T02:26:13;100588.38;;;13.47;100.00
71145;BME280;58812;47.698;17.726;2023-09-30T02:28:39;100590.78;;;13.32;100.00
71145;BME280;58812;47.698;17.726;2023-09-30T02:31:04;100585.31;;;13.42;100.00
71145;BME280;58812;47.698;17.726;2023-09-30T02:33:32;100587.91;;;13.34;100.00
71145;BME280;58812;47.698;17.726;2023-09-30T02:35:58;100592.41;;;13.25;100.00
71145;BME280;58812;47.698;17.726;2023-09-30T02:38:24;100586.78;;;13.36;100.00
71145;BME280;58812;47.698;17.726;2023-09-30T02:40:50;100592.87;;;13.21;100.00
71145;BME280;58812;47.698;17.726;2023-09-30T02:43:16;100596.94;;;13.25;100.00
71145;BME280;58812;47.698;17.726;2023-09-30T02:45:42;100595.97;;;13.16;100.00
71145;BME280;58812;47.698;17.726;2023-09-30T02:48:07;100592.87;;;13.21;100.00
71145;BME280;58812;47.698;17.726;2023-09-30T02:50:33;100594.06;;;13.44;100.00
71145;BME280;58812;47.698;17.726;2023-09-30T02:52:59;100602.69;;;13.30;100.00
71145;BME280;58812;47.698;17.726;2023-09-30T02:55:24;100605.88;;;13.16;100.00
71145;BME280;58812;47.698;17.726;2023-09-30T02:57:50;100603.13;;;13.07;100.00
71145;BME280;58812;47.698;17.726;2023-09-30T03:00:15;100605.81;;;13.07;100.00
71145;BME280;58812;47.698;17.726;2023-09-30T03:02:54;100606.50;;;12.92;100.00
71145;BME280;58812;47.698;17.726;2023-09-30T03:05:20;100600.91;;;12.85;100.00
71145;BME280;58812;47.698;17.726;2023-09-30T03:07:46;100607.69;;;13.07;100.00
71145;BME280;58812;47.698;17.726;2023-09-30T03:10:11;100601.06;;;13.19;100.00
71145;BME280;58812;47.698;17.726;2023-09-30T03:12:39;100604.47;;;13.21;100.00
71145;BME280;58812;47.698;17.726;2023-09-30T03:15:05;100610.81;;;13.02;100.00
71145;BME280;58812;47.698;17.726;2023-09-30T03:17:31;100611.44;;;13.14;100.00
71145;BME280;58812;47.698;17.726;2023-09-30T03:19:57;100610.28;;;12.99;100.00
71145;BME280;58812;47.698;17.726;2023-09-30T03:22:25;100607.13;;;13.03;100.00
71145;BME280;58812;47.698;17.726;2023-09-30T03:24:51;100616.19;;;13.02;100.00
71145;BME280;58812;47.698;17.726;2023-09-30T03:27:16;100609.41;;;12.98;100.00
71145;BME280;58812;47.698;17.726;2023-09-30T03:29:42;100611.59;;;13.13;100.00
71145;BME280;58812;47.698;17.726;2023-09-30T03:32:07;100620.69;;;13.29;100.00
71145;BME280;58812;47.698;17.726;2023-09-30T03:34:33;100623.19;;;13.13;100.00
71145;BME280;58812;47.698;17.726;2023-09-30T03:37:02;100615.44;;;13.28;100.00
71145;BME280;58812;47.698;17.726;2023-09-30T03:39:28;100624.97;;;13.40;100.00
71145;BME280;58812;47.698;17.726;2023-09-30T03:41:57;100628.41;;;13.32;100.00
71145;BME280;58812;47.698;17.726;2023-09-30T03:44:24;100621.56;;;13.38;100.00
71145;BME280;58812;47.698;17.726;2023-09-30T03:46:51;100616.34;;;13.36;100.00
71145;BME280;58812;47.698;17.726;2023-09-30T03:49:16;100619.84;;;13.29;100.00
71145;BME280;58812;47.698;17.726;2023-09-30T03:51:42;100624.97;;;13.40;100.00
71145;BME280;58812;47.698;17.726;2023-09-30T03:54:07;100627.37;;;13.16;100.00
71145;BME280;58812;47.698;17.726;2023-09-30T03:56:34;100624.03;;;13.14;100.00
71145;BME280;58812;47.698;17.726;2023-09-30T03:58:59;100633.09;;;13.13;100.00
71145;BME280;58812;47.698;17.726;2023-09-30T04:01:25;100629.38;;;13.23;100.00
71145;BME280;58812;47.698;17.726;2023-09-30T04:03:52;100623.41;;;13.20;100.00
71145;BME280;58812;47.698;17.726;2023-09-30T04:06:20;100624.56;;;13.17;100.00
71145;BME280;58812;47.698;17.726;2023-09-30T04:08:46;100624.34;;;13.10;100.00
71145;BME280;58812;47.698;17.726;2023-09-30T04:11:12;100623.16;;;13.23;100.00
71145;BME280;58812;47.698;17.726;2023-09-30T04:13:43;100613.28;;;13.14;100.00
71145;BME280;58812;47.698;17.726;2023-09-30T04:16:09;100617.06;;;13.21;100.00
71145;BME280;58812;47.698;17.726;2023-09-30T04:18:34;100621.13;;;13.25;100.00
71145;BME280;58812;47.698;17.726;2023-09-30T04:21:00;100619.97;;;13.27;100.00
71145;BME280;58812;47.698;17.726;2023-09-30T04:23:25;100620.34;;;13.15;100.00
71145;BME280;58812;47.698;17.726;2023-09-30T04:25:51;100612.28;;;13.15;100.00
71145;BME280;58812;47.698;17.726;2023-09-30T04:28:16;100622.72;;;13.18;100.00
71145;BME280;58812;47.698;17.726;2023-09-30T04:30:49;100619.47;;;13.50;100.00
71145;BME280;58812;47.698;17.726;2023-09-30T04:33:15;100628.34;;;13.42;100.00
71145;BME280;58812;47.698;17.726;2023-09-30T04:35:43;100642.91;;;13.57;100.00
71145;BME280;58812;47.698;17.726;2023-09-30T04:38:08;100630.03;;;13.25;100.00
71145;BME280;58812;47.698;17.726;2023-09-30T04:40:34;100639.56;;;13.63;100.00
71145;BME280;58812;47.698;17.726;2023-09-30T04:42:59;100632.66;;;13.35;100.00
71145;BME280;58812;47.698;17.726;2023-09-30T04:45:25;100641.41;;;13.37;100.00
71145;BME280;58812;47.698;17.726;2023-09-30T04:47:52;100640.13;;;13.67;100.00
71145;BME280;58812;47.698;17.726;2023-09-30T04:50:18;100652.50;;;13.60;100.00
71145;BME280;58812;47.698;17.726;2023-09-30T04:52:47;100657.69;;;13.53;100.00
71145;BME280;58812;47.698;17.726;2023-09-30T04:55:13;100656.97;;;13.51;100.00
71145;BME280;58812;47.698;17.726;2023-09-30T04:57:41;100652.84;;;13.39;100.00
71145;BME280;58812;47.698;17.726;2023-09-30T05:00:11;100660.63;;;13.42;100.00
71145;BME280;58812;47.698;17.726;2023-09-30T05:02:37;100665.88;;;13.52;100.00
71145;BME280;58812;47.698;17.726;2023-09-30T05:05:03;100655.03;;;13.61;100.00
71145;BME280;58812;47.698;17.726;2023-09-30T05:07:31;100670.87;;;13.65;100.00
71145;BME280;58812;47.698;17.726;2023-09-30T05:09:57;100681.06;;;13.79;100.00
71145;BME280;58812;47.698;17.726;2023-09-30T05:12:23;100690.31;;;14.02;100.00
71145;BME280;58812;47.698;17.726;2023-09-30T05:14:48;100690.31;;;14.02;100.00
71145;BME280;58812;47.698;17.726;2023-09-30T05:17:14;100694.00;;;14.01;100.00
71145;BME280;58812;47.698;17.726;2023-09-30T05:19:39;100694.06;;;13.83;100.00
71145;BME280;58812;47.698;17.726;2023-09-30T05:22:05;100684.03;;;13.94;100.00
71145;BME280;58812;47.698;17.726;2023-09-30T05:24:30;100707.59;;;13.74;100.00
71145;BME280;58812;47.698;17.726;2023-09-30T05:26:56;100694.53;;;13.79;100.00
71145;BME280;58812;47.698;17.726;2023-09-30T05:29:22;100700.53;;;13.73;100.00
71145;BME280;58812;47.698;17.726;2023-09-30T05:31:48;100709.28;;;13.75;100.00
71145;BME280;58812;47.698;17.726;2023-09-30T05:34:13;100717.09;;;13.60;100.00
71145;BME280;58812;47.698;17.726;2023-09-30T05:36:39;100709.66;;;13.80;100.00
71145;BME280;58812;47.698;17.726;2023-09-30T05:39:05;100727.56;;;13.89;100.00
71145;BME280;58812;47.698;17.726;2023-09-30T05:41:33;100718.28;;;14.09;100.00
71145;BME280;58812;47.698;17.726;2023-09-30T05:43:58;100718.06;;;14.29;100.00
71145;BME280;58812;47.698;17.726;2023-09-30T05:46:25;100728.72;;;14.38;100.00
71145;BME280;58812;47.698;17.726;2023-09-30T05:48:50;100727.88;;;14.38;100.00
71145;BME280;58812;47.698;17.726;2023-09-30T05:51:16;100734.28;;;14.37;100.00
71145;BME280;58812;47.698;17.726;2023-09-30T05:53:44;100747.34;;;14.50;100.00
71145;BME280;58812;47.698;17.726;2023-09-30T05:56:10;100745.31;;;14.26;100.00
71145;BME280;58812;47.698;17.726;2023-09-30T05:58:36;100737.28;;;14.34;100.00
71145;BME280;58812;47.698;17.726;2023-09-30T06:01:10;100742.25;;;14.47;100.00
71145;BME280;58812;47.698;17.726;2023-09-30T06:03:40;100753.75;;;14.83;100.00
71145;BME280;58812;47.698;17.726;2023-09-30T06:06:15;100754.78;;;14.90;100.00
71145;BME280;58812;47.698;17.726;2023-09-30T06:08:44;100760.19;;;14.90;100.00
71145;BME280;58812;47.698;17.726;2023-09-30T06:11:17;100772.94;;;14.88;100.00
71145;BME280;58812;47.698;17.726;2023-09-30T06:13:43;100772.25;;;14.78;100.00
71145;BME280;58812;47.698;17.726;2023-09-30T06:16:08;100771.81;;;14.64;100.00
71145;BME280;58812;47.698;17.726;2023-09-30T06:18:36;100767.12;;;14.40;100.00
71145;BME280;58812;47.698;17.726;2023-09-30T06:21:01;100769.47;;;14.61;100.00
71145;BME280;58812;47.698;17.726;2023-09-30T06:23:29;100773.59;;;14.82;100.00
71145;BME280;58812;47.698;17.726;2023-09-30T06:25:55;100767.50;;;14.72;100.00
71145;BME280;58812;47.698;17.726;2023-09-30T06:28:21;100783.13;;;15.02;100.00
71145;BME280;58812;47.698;17.726;2023-09-30T06:30:51;100790.28;;;15.19;100.00
71145;BME280;58812;47.698;17.726;2023-09-30T06:33:17;100792.97;;;15.19;100.00
71145;BME280;58812;47.698;17.726;2023-09-30T06:35:42;100792.97;;;15.19;100.00
71145;BME280;58812;47.698;17.726;2023-09-30T06:38:16;100786.59;;;15.29;100.00
71145;BME280;58812;47.698;17.726;2023-09-30T06:40:43;100787.91;;;15.16;100.00
71145;BME280;58812;47.698;17.726;2023-09-30T06:43:08;100793.63;;;15.13;100.00
71145;BME280;58812;47.698;17.726;2023-09-30T06:45:33;100784.47;;;14.98;100.00
71145;BME280;58812;47.698;17.726;2023-09-30T06:47:59;100801.38;;;15.16;100.00
71145;BME280;58812;47.698;17.726;2023-09-30T06:50:24;100793.28;;;15.16;100.00
71145;BME280;58812;47.698;17.726;2023-09-30T06:52:50;100791.12;;;15.20;100.00
71145;BME280;58812;47.698;17.726;2023-09-30T06:55:15;100797.25;;;15.46;100.00
71145;BME280;58812;47.698;17.726;2023-09-30T06:57:42;100785.13;;;15.50;100.00
71145;BME280;58812;47.698;17.726;2023-09-30T07:00:12;100801.81;;;15.46;100.00
71145;BME280;58812;47.698;17.726;2023-09-30T07:02:38;100813.03;;;15.67;99.92
71145;BME280;58812;47.698;17.726;2023-09-30T07:05:07;100810.25;;;15.43;99.77
71145;BME280;58812;47.698;17.726;2023-09-30T07:07:33;100804.56;;;15.62;99.58
71145;BME280;58812;47.698;17.726;2023-09-30T07:09:58;100805.28;;;15.72;99.54
71145;BME280;58812;47.698;17.726;2023-09-30T07:12:24;100819.09;;;15.69;99.66
71145;BME280;58812;47.698;17.726;2023-09-30T07:14:49;100807.31;;;15.87;98.89
71145;BME280;58812;47.698;17.726;2023-09-30T07:17:14;100800.22;;;16.02;98.28
71145;BME280;58812;47.698;17.726;2023-09-30T07:19:40;100813.72;;;16.35;97.19
71145;BME280;58812;47.698;17.726;2023-09-30T07:22:05;100805.81;;;16.25;96.45
71145;BME280;58812;47.698;17.726;2023-09-30T07:24:31;100818.38;;;16.65;95.32
71145;BME280;58812;47.698;17.726;2023-09-30T07:26:56;100812.31;;;16.63;95.37
71145;BME280;58812;47.698;17.726;2023-09-30T07:29:22;100815.63;;;16.90;94.32
71145;BME280;58812;47.698;17.726;2023-09-30T07:31:48;100816.59;;;17.05;93.83
71145;BME280;58812;47.698;17.726;2023-09-30T07:34:14;100825.94;;;17.33;91.31
71145;BME280;58812;47.698;17.726;2023-09-30T07:36:39;100830.72;;;17.23;91.18
71145;BME280;58812;47.698;17.726;2023-09-30T07:39:05;100819.00;;;17.31;91.42
71145;BME280;58812;47.698;17.726;2023-09-30T07:41:34;100833.44;;;17.23;91.27
71145;BME280;58812;47.698;17.726;2023-09-30T07:44:00;100842.62;;;17.45;91.45
71145;BME280;58812;47.698;17.726;2023-09-30T07:46:26;100834.66;;;17.52;90.85
71145;BME280;58812;47.698;17.726;2023-09-30T07:48:51;100829.09;;;17.14;92.94
71145;BME280;58812;47.698;17.726;2023-09-30T07:51:17;100842.12;;;17.42;92.55
71145;BME280;58812;47.698;17.726;2023-09-30T07:53:43;100835.81;;;17.57;92.01
71145;BME280;58812;47.698;17.726;2023-09-30T07:56:08;100835.69;;;17.51;91.97
71145;BME280;58812;47.698;17.726;2023-09-30T07:58:34;100831.84;;;17.68;92.16
71145;BME280;58812;47.698;17.726;2023-09-30T08:00:59;100838.88;;;17.85;92.05
71145;BME280;58812;47.698;17.726;2023-09-30T08:03:26;100848.72;;;18.01;91.34
71145;BME280;58812;47.698;17.726;2023-09-30T08:05:52;100842.25;;;18.10;90.90
71145;BME280;58812;47.698;17.726;2023-09-30T08:08:17;100843.31;;;18.01;92.00
71145;BME280;58812;47.698;17.726;2023-09-30T08:10:43;100842.69;;;18.14;91.97
71145;BME280;58812;47.698;17.726;2023-09-30T08:13:08;100849.84;;;18.15;92.32
71145;BME280;58812;47.698;17.726;2023-09-30T08:15:34;100842.66;;;17.99;92.00
71145;BME280;58812;47.698;17.726;2023-09-30T08:18:00;100845.50;;;18.06;92.63
71145;BME280;58812;47.698;17.726;2023-09-30T08:20:27;100844.75;;;18.12;92.66
71145;BME280;58812;47.698;17.726;2023-09-30T08:22:53;100846.41;;;18.21;92.54
71145;BME280;58812;47.698;17.726;2023-09-30T08:25:18;100846.72;;;18.56;90.90
71145;BME280;58812;47.698;17.726;2023-09-30T08:27:43;100854.94;;;18.71;89.81
71145;BME280;58812;47.698;17.726;2023-09-30T08:30:14;100843.91;;;18.72;90.06
71145;BME280;58812;47.698;17.726;2023-09-30T08:32:40;100841.19;;;19.02;88.73
71145;BME280;58812;47.698;17.726;2023-09-30T08:35:06;100854.78;;;19.16;88.10
71145;BME280;58812;47.698;17.726;2023-09-30T08:37:32;100852.72;;;19.33;87.48
71145;BME280;58812;47.698;17.726;2023-09-30T08:39:58;100849.22;;;19.39;87.15
71145;BME280;58812;47.698;17.726;2023-09-30T08:42:23;100854.37;;;18.90;89.37
71145;BME280;58812;47.698;17.726;2023-09-30T08:44:54;100850.56;;;19.14;89.39
71145;BME280;58812;47.698;17.726;2023-09-30T08:47:20;100851.03;;;19.17;89.40
71145;BME280;58812;47.698;17.726;2023-09-30T08:49:48;100854.09;;;19.14;89.56
71145;BME280;58812;47.698;17.726;2023-09-30T08:52:20;100858.91;;;19.27;89.37
71145;BME280;58812;47.698;17.726;2023-09-30T08:54:45;100855.50;;;19.25;89.71
71145;BME280;58812;47.698;17.726;2023-09-30T08:57:12;100857.28;;;18.88;91.76
71145;BME280;58812;47.698;17.726;2023-09-30T08:59:41;100863.84;;;19.09;91.47
71145;BME280;58812;47.698;17.726;2023-09-30T09:02:10;100859.72;;;19.13;91.42
71145;BME280;58812;47.698;17.726;2023-09-30T09:04:38;100861.03;;;19.02;90.91
71145;BME280;58812;47.698;17.726;2023-09-30T09:07:03;100850.09;;;19.10;90.55
71145;BME280;58812;47.698;17.726;2023-09-30T09:09:29;100861.03;;;19.17;91.04
71145;BME280;58812;47.698;17.726;2023-09-30T09:11:55;100850.50;;;19.43;89.87
71145;BME280;58812;47.698;17.726;2023-09-30T09:14:40;100859.19;;;19.68;88.49
71145;BME280;58812;47.698;17.726;2023-09-30T09:17:07;100858.16;;;19.55;88.92
71145;BME280;58812;47.698;17.726;2023-09-30T09:19:36;100856.41;;;19.47;89.04
71145;BME280;58812;47.698;17.726;2023-09-30T09:22:03;100850.22;;;19.53;90.03
71145;BME280;58812;47.698;17.726;2023-09-30T09:24:38;100853.50;;;19.48;89.37
71145;BME280;58812;47.698;17.726;2023-09-30T09:27:13;100853.50;;;19.48;89.47
71145;BME280;58812;47.698;17.726;2023-09-30T09:29:42;100863.06;;;19.44;90.01
71145;BME280;58812;47.698;17.726;2023-09-30T09:32:11;100854.34;;;19.49;90.12
71145;BME280;58812;47.698;17.726;2023-09-30T09:34:38;100853.06;;;19.45;90.11
71145;BME280;58812;47.698;17.726;2023-09-30T09:37:20;100854.00;;;19.37;90.39
71145;BME280;58812;47.698;17.726;2023-09-30T09:39:53;100850.94;;;19.11;91.35
71145;BME280;58812;47.698;17.726;2023-09-30T09:42:31;100842.69;;;19.19;91.68
71145;BME280;58812;47.698;17.726;2023-09-30T09:45:02;100850.34;;;19.30;91.24
71145;BME280;58812;47.698;17.726;2023-09-30T09:47:29;100849.41;;;19.38;91.21
71145;BME280;58812;47.698;17.726;2023-09-30T09:49:57;100849.31;;;19.31;90.62
71145;BME280;58812;47.698;17.726;2023-09-30T09:52:24;100849.72;;;19.28;91.70
71145;BME280;58812;47.698;17.726;2023-09-30T09:54:50;100845.91;;;19.44;91.53
71145;BME280;58812;47.698;17.726;2023-09-30T09:57:17;100847.88;;;19.65;90.07
71145;BME280;58812;47.698;17.726;2023-09-30T09:59:44;100849.72;;;19.79;89.44
71145;BME280;58812;47.698;17.726;2023-09-30T10:02:13;100841.25;;;20.10;88.24
71145;BME280;58812;47.698;17.726;2023-09-30T10:04:41;100854.50;;;20.41;86.73
71145;BME280;58812;47.698;17.726;2023-09-30T10:07:10;100846.87;;;20.09;88.00
71145;BME280;58812;47.698;17.726;2023-09-30T10:09:46;100851.13;;;20.39;86.33
71145;BME280;58812;47.698;17.726;2023-09-30T10:12:14;100846.09;;;20.36;86.67
71145;BME280;58812;47.698;17.726;2023-09-30T10:14:40;100851.22;;;21.08;83.77
71145;BME280;58812;47.698;17.726;2023-09-30T10:17:05;100856.88;;;22.09;78.09
71145;BME280;58812;47.698;17.726;2023-09-30T10:19:31;100853.13;;;22.50;76.51
71145;BME280;58812;47.698;17.726;2023-09-30T10:24:41;100865.41;;;22.00;77.17
71145;BME280;58812;47.698;17.726;2023-09-30T10:27:33;100863.09;;;21.90;77.44
71145;BME280;58812;47.698;17.726;2023-09-30T10:36:00;100849.94;;;22.73;75.01
71145;BME280;58812;47.698;17.726;2023-09-30T10:40:50;100851.41;;;22.76;74.10
71145;BME280;58812;47.698;17.726;2023-09-30T10:43:32;100855.00;;;22.63;73.93
71145;BME280;58812;47.698;17.726;2023-09-30T10:45:58;100847.47;;;22.19;76.79
71145;BME280;58812;47.698;17.726;2023-09-30T10:51:01;100837.75;;;21.96;77.55
71145;BME280;58812;47.698;17.726;2023-09-30T10:53:49;100844.81;;;21.71;78.56
71145;BME280;58812;47.698;17.726;2023-09-30T10:56:17;100835.38;;;21.80;78.41
71145;BME280;58812;47.698;17.726;2023-09-30T10:58:52;100836.87;;;21.82;78.49
71145;BME280;58812;47.698;17.726;2023-09-30T11:03:45;100826.38;;;21.73;76.83
71145;BME280;58812;47.698;17.726;2023-09-30T11:06:14;100823.97;;;22.24;76.39
71145;BME280;58812;47.698;17.726;2023-09-30T11:08:50;100823.09;;;22.57;74.63
71145;BME280;58812;47.698;17.726;2023-09-30T11:11:16;100822.03;;;22.51;74.08
71145;BME280;58812;47.698;17.726;2023-09-30T11:13:41;100817.25;;;22.53;73.43
71145;BME280;58812;47.698;17.726;2023-09-30T11:16:07;100825.72;;;23.16;71.43
71145;BME280;58812;47.698;17.726;2023-09-30T11:18:34;100824.09;;;22.76;71.98
71145;BME280;58812;47.698;17.726;2023-09-30T11:21:09;100825.16;;;23.01;70.80
71145;BME280;58812;47.698;17.726;2023-09-30T11:23:36;100828.09;;;22.80;70.51
71145;BME280;58812;47.698;17.726;2023-09-30T11:26:02;100828.56;;;22.57;71.23
71145;BME280;58812;47.698;17.726;2023-09-30T11:28:42;100835.06;;;22.49;70.85
71145;BME280;58812;47.698;17.726;2023-09-30T11:31:12;100837.53;;;23.55;68.16
71145;BME280;58812;47.698;17.726;2023-09-30T11:33:53;100836.59;;;23.30;67.27
71145;BME280;58812;47.698;17.726;2023-09-30T11:36:22;100830.56;;;23.14;68.26
71145;BME280;58812;47.698;17.726;2023-09-30T11:38:49;100828.41;;;23.23;68.38
71145;BME280;58812;47.698;17.726;2023-09-30T11:41:16;100827.06;;;23.01;68.84
71145;BME280;58812;47.698;17.726;2023-09-30T11:44:09;100822.06;;;22.38;69.80
71145;BME280;58812;47.698;17.726;2023-09-30T11:49:26;100824.78;;;22.11;70.02
71145;BME280;58812;47.698;17.726;2023-09-30T11:52:00;100825.62;;;22.25;70.93
71145;BME280;58812;47.698;17.726;2023-09-30T11:54:36;100812.22;;;22.37;71.11
71145;BME280;58812;47.698;17.726;2023-09-30T11:57:07;100811.34;;;22.17;71.74
71145;BME280;58812;47.698;17.726;2023-09-30T11:59:35;100815.97;;;22.29;72.12
71145;BME280;58812;47.698;17.726;2023-09-30T12:02:11;100809.03;;;22.00;72.42
71145;BME280;58812;47.698;17.726;2023-09-30T12:04:37;100810.47;;;21.96;72.06
71145;BME280;58812;47.698;17.726;2023-09-30T12:07:03;100813.19;;;21.96;72.09
71145;BME280;58812;47.698;17.726;2023-09-30T12:09:29;100815.31;;;21.94;72.71
71145;BME280;58812;47.698;17.726;2023-09-30T12:11:56;100819.72;;;21.95;72.46
71145;BME280;58812;47.698;17.726;2023-09-30T12:14:24;100814.94;;;22.24;72.01
71145;BME280;58812;47.698;17.726;2023-09-30T12:16:49;100808.81;;;22.68;70.61
71145;BME280;58812;47.698;17.726;2023-09-30T12:19:19;100801.16;;;23.10;69.29
71145;BME280;58812;47.698;17.726;2023-09-30T12:21:46;100802.31;;;22.62;69.87
71145;BME280;58812;47.698;17.726;2023-09-30T12:24:16;100796.97;;;23.07;68.99
71145;BME280;58812;47.698;17.726;2023-09-30T12:26:44;100797.56;;;23.67;66.70
71145;BME280;58812;47.698;17.726;2023-09-30T12:29:14;100796.47;;;24.00;64.71
71145;BME280;58812;47.698;17.726;2023-09-30T12:31:43;100791.59;;;24.09;65.05
71145;BME280;58812;47.698;17.726;2023-09-30T12:34:08;100791.66;;;23.95;65.58
71145;BME280;58812;47.698;17.726;2023-09-30T12:36:34;100786.53;;;23.81;65.24
71145;BME280;58812;47.698;17.726;2023-09-30T12:38:59;100789.28;;;23.36;65.44
71145;BME280;58812;47.698;17.726;2023-09-30T12:41:25;100796.75;;;23.60;65.64
71145;BME280;58812;47.698;17.726;2023-09-30T12:43:50;100783.25;;;23.72;65.43
71145;BME280;58812;47.698;17.726;2023-09-30T12:46:16;100794.88;;;23.92;64.56
71145;BME280;58812;47.698;17.726;2023-09-30T12:48:43;100787.00;;;23.71;65.38
71145;BME280;58812;47.698;17.726;2023-09-30T12:51:10;100785.00;;;23.46;66.01
71145;BME280;58812;47.698;17.726;2023-09-30T12:53:35;100790.22;;;23.61;65.56